createdAt,value
2023-03-15T00:00:06.377Z,10.68
2023-03-15T00:02:35.990Z,10.92
2023-03-15T00:05:04.705Z,11.02
2023-03-15T00:07:32.720Z,11.22
2023-03-15T00:10:00.674Z,11.44
2023-03-15T00:12:28.621Z,11.56
2023-03-15T00:14:56.660Z,11.60
2023-03-15T00:17:24.623Z,10.98
2023-03-15T00:19:54.040Z,10.89
2023-03-15T00:22:23.391Z,10.90
2023-03-15T00:24:51.458Z,10.97
2023-03-15T00:27:21.662Z,11.16
2023-03-15T00:29:49.921Z,11.27
2023-03-15T00:32:18.222Z,11.27
2023-03-15T00:34:49.229Z,11.32
2023-03-15T00:37:19.798Z,11.33
2023-03-15T00:39:48.397Z,11.48
2023-03-15T00:42:17.119Z,11.52
2023-03-15T00:44:46.186Z,11.52
2023-03-15T00:47:15.936Z,11.17
2023-03-15T00:49:43.988Z,11.17
2023-03-15T00:52:12.692Z,11.24
2023-03-15T00:54:43.920Z,11.32
2023-03-15T00:57:12.023Z,11.49
2023-03-15T00:59:40.250Z,11.55
2023-03-15T01:02:08.906Z,11.61
2023-03-15T01:04:37.014Z,11.61
2023-03-15T01:07:05.600Z,11.52
2023-03-15T01:09:33.621Z,11.55
2023-03-15T01:12:03.031Z,11.51
2023-03-15T01:14:31.519Z,11.61
2023-03-15T01:17:02.364Z,11.66
2023-03-15T01:19:32.819Z,11.44
2023-03-15T01:22:00.783Z,11.38
2023-03-15T01:24:28.789Z,11.38
2023-03-15T01:26:56.903Z,11.36
2023-03-15T01:29:26.386Z,11.25
2023-03-15T01:31:54.641Z,11.35
2023-03-15T01:34:22.791Z,11.39
2023-03-15T01:36:52.519Z,11.45
2023-03-15T01:39:23.005Z,11.54
2023-03-15T01:41:51.037Z,11.52
2023-03-15T01:44:22.172Z,11.36
2023-03-15T01:46:52.263Z,11.24
2023-03-15T01:49:25.209Z,11.14
2023-03-15T01:51:57.153Z,11.13
2023-03-15T01:54:28.996Z,11.06
2023-03-15T01:57:02.366Z,11.03
2023-03-15T01:59:33.558Z,11.10
2023-03-15T02:02:04.224Z,11.13
2023-03-15T02:04:37.105Z,11.22
2023-03-15T02:07:06.936Z,10.95
2023-03-15T02:09:44.552Z,11.15
2023-03-15T02:12:12.618Z,11.29
2023-03-15T02:14:42.659Z,11.40
2023-03-15T02:17:12.420Z,11.44
2023-03-15T02:19:51.166Z,11.44
2023-03-15T02:22:34.698Z,11.33
2023-03-15T02:25:12.077Z,11.34
2023-03-15T02:27:42.125Z,11.19
2023-03-15T02:30:12.658Z,11.36
2023-03-15T02:32:40.806Z,11.40
2023-03-15T02:35:25.150Z,11.40
2023-03-15T02:37:53.153Z,11.48
2023-03-15T02:40:23.879Z,11.52
2023-03-15T02:42:56.836Z,11.48
2023-03-15T02:45:27.242Z,11.34
2023-03-15T02:47:55.844Z,11.37
2023-03-15T02:50:23.926Z,11.50
2023-03-15T02:52:52.665Z,11.50
2023-03-15T02:55:21.838Z,11.55
2023-03-15T02:57:51.149Z,11.51
2023-03-15T03:00:22.248Z,11.28
2023-03-15T03:02:50.373Z,11.38
2023-03-15T03:05:20.956Z,11.35
2023-03-15T03:07:50.498Z,11.51
2023-03-15T03:10:20.662Z,11.51
2023-03-15T03:12:53.715Z,11.41
2023-03-15T03:15:23.260Z,11.60
2023-03-15T03:17:51.269Z,11.60
2023-03-15T03:20:19.492Z,11.61
2023-03-15T03:22:47.493Z,11.64
2023-03-15T03:25:15.584Z,11.73
2023-03-15T03:27:44.142Z,11.78
2023-03-15T03:30:14.474Z,11.70
2023-03-15T03:32:44.021Z,11.75
2023-03-15T03:35:13.546Z,11.81
2023-03-15T03:37:42.714Z,11.85
2023-03-15T03:40:12.281Z,11.80
2023-03-15T03:42:40.308Z,11.70
2023-03-15T03:45:09.688Z,11.83
2023-03-15T03:47:38.047Z,11.89
2023-03-15T03:50:08.851Z,11.89
2023-03-15T03:52:36.899Z,11.92
2023-03-15T03:55:05.190Z,11.78
2023-03-15T03:57:33.134Z,11.81
2023-03-15T04:00:01.052Z,11.92
2023-03-15T04:02:29.055Z,11.94
2023-03-15T04:04:57.066Z,11.90
2023-03-15T04:07:26.481Z,11.90
2023-03-15T04:09:54.708Z,11.83
2023-03-15T04:12:22.893Z,11.87
2023-03-15T04:14:51.325Z,11.88
2023-03-15T04:17:19.352Z,11.99
2023-03-15T04:19:47.804Z,12.03
2023-03-15T04:22:16.434Z,12.08
2023-03-15T04:24:45.989Z,12.15
2023-03-15T04:27:14.949Z,12.13
2023-03-15T04:29:43.685Z,12.18
2023-03-15T04:32:12.320Z,12.30
2023-03-15T04:34:40.587Z,12.16
2023-03-15T04:37:09.026Z,12.25
2023-03-15T04:39:37.169Z,12.22
2023-03-15T04:42:06.991Z,12.29
2023-03-15T04:44:34.926Z,12.25
2023-03-15T04:47:02.908Z,12.25
2023-03-15T04:49:31.788Z,12.09
2023-03-15T04:51:59.775Z,12.11
2023-03-15T04:54:27.940Z,12.20
2023-03-15T04:56:55.897Z,12.22
2023-03-15T04:59:25.347Z,12.30
2023-03-15T05:01:53.306Z,12.13
2023-03-15T05:04:21.599Z,12.12
2023-03-15T05:06:49.593Z,12.19
2023-03-15T05:09:19.228Z,12.20
2023-03-15T05:11:47.562Z,12.27
2023-03-15T05:14:15.677Z,12.34
2023-03-15T05:16:44.995Z,12.20
2023-03-15T05:19:12.992Z,12.22
2023-03-15T05:21:41.013Z,12.29
2023-03-15T05:24:09.071Z,12.26
2023-03-15T05:26:38.380Z,12.33
2023-03-15T05:29:06.339Z,12.41
2023-03-15T05:31:37.098Z,12.22
2023-03-15T05:34:06.704Z,12.10
2023-03-15T05:36:35.328Z,11.97
2023-03-15T05:39:04.472Z,12.08
2023-03-15T05:41:33.964Z,12.16
2023-03-15T05:44:02.045Z,12.20
2023-03-15T05:46:30.099Z,12.32
2023-03-15T05:48:58.200Z,12.30
2023-03-15T05:51:27.860Z,12.27
2023-03-15T05:53:58.270Z,12.35
2023-03-15T05:56:26.369Z,12.40
2023-03-15T05:58:54.334Z,12.28
2023-03-15T06:01:22.594Z,12.27
2023-03-15T06:03:50.849Z,12.31
2023-03-15T06:06:18.877Z,12.25
2023-03-15T06:08:48.436Z,12.32
2023-03-15T06:11:16.661Z,12.35
2023-03-15T06:13:44.633Z,12.27
2023-03-15T06:16:12.693Z,12.37
2023-03-15T06:18:41.002Z,12.40
2023-03-15T06:21:08.950Z,12.52
2023-03-15T06:23:37.194Z,12.43
2023-03-15T06:26:06.824Z,12.49
2023-03-15T06:28:34.836Z,12.52
2023-03-15T06:31:07.968Z,12.51
2023-03-15T06:33:36.142Z,12.42
2023-03-15T06:36:04.725Z,12.42
2023-03-15T06:38:33.248Z,12.31
2023-03-15T06:41:01.967Z,12.42
2023-03-15T06:43:31.579Z,12.49
2023-03-15T06:46:00.183Z,12.56
2023-03-15T06:48:28.440Z,12.73
2023-03-15T06:50:56.813Z,12.71
2023-03-15T06:53:24.797Z,12.78
2023-03-15T06:55:52.846Z,12.87
2023-03-15T06:58:23.447Z,12.76
2023-03-15T07:00:52.788Z,12.90
2023-03-15T07:03:22.457Z,12.86
2023-03-15T07:05:52.650Z,13.11
2023-03-15T07:08:21.097Z,13.22
2023-03-15T07:10:50.589Z,12.98
2023-03-15T07:13:21.413Z,13.05
2023-03-15T07:15:54.589Z,13.05
2023-03-15T07:18:22.607Z,12.59
2023-03-15T07:20:57.121Z,12.67
2023-03-15T07:23:25.323Z,13.03
2023-03-15T07:25:55.426Z,13.26
2023-03-15T07:28:24.630Z,13.23
2023-03-15T07:30:58.338Z,13.44
2023-03-15T07:33:27.566Z,13.52
2023-03-15T07:35:56.632Z,13.59
2023-03-15T07:38:26.284Z,13.53
2023-03-15T07:40:54.264Z,13.46
2023-03-15T07:43:22.713Z,13.44
2023-03-15T07:45:50.999Z,13.66
2023-03-15T07:48:20.472Z,14.09
2023-03-15T07:50:48.589Z,14.40
2023-03-15T07:53:16.636Z,14.73
2023-03-15T07:55:45.034Z,14.99
2023-03-15T07:58:12.989Z,14.51
2023-03-15T08:00:40.951Z,14.45
2023-03-15T08:03:10.149Z,14.54
2023-03-15T08:05:40.033Z,14.70
2023-03-15T08:08:08.200Z,14.92
2023-03-15T08:10:36.235Z,15.09
2023-03-15T08:13:04.184Z,14.98
2023-03-15T08:15:32.242Z,14.90
2023-03-15T08:18:00.882Z,14.85
2023-03-15T08:20:29.932Z,15.02
2023-03-15T08:22:59.575Z,15.27
2023-03-15T08:25:27.846Z,15.48
2023-03-15T08:27:55.861Z,15.57
2023-03-15T08:30:24.155Z,15.82
2023-03-15T08:32:52.689Z,15.88
2023-03-15T08:35:23.058Z,15.79
2023-03-15T08:37:52.580Z,15.60
2023-03-15T08:40:24.891Z,15.61
2023-03-15T08:42:53.931Z,15.50
2023-03-15T08:45:24.055Z,15.27
2023-03-15T08:47:55.393Z,15.18
2023-03-15T08:50:23.468Z,15.15
2023-03-15T08:52:51.471Z,14.97
2023-03-15T08:55:21.055Z,14.62
2023-03-15T08:57:49.381Z,14.73
2023-03-15T09:00:20.871Z,15.02
2023-03-15T09:02:49.918Z,15.10
2023-03-15T09:05:18.353Z,15.11
2023-03-15T09:07:46.984Z,15.14
2023-03-15T09:10:16.956Z,15.22
2023-03-15T09:12:48.292Z,14.93
2023-03-15T09:15:16.938Z,14.97
2023-03-15T09:17:45.513Z,14.95
2023-03-15T09:20:16.877Z,14.86
2023-03-15T09:22:50.713Z,15.08
2023-03-15T09:25:19.307Z,15.12
2023-03-15T09:27:48.641Z,15.12
2023-03-15T09:30:17.012Z,15.38
2023-03-15T09:32:45.961Z,15.53
2023-03-15T09:35:16.207Z,15.52
2023-03-15T09:37:44.636Z,15.90
2023-03-15T09:40:19.943Z,15.95
2023-03-15T09:43:04.251Z,15.63
2023-03-15T09:45:55.740Z,16.09
2023-03-15T09:48:29.050Z,16.20
2023-03-15T09:51:02.173Z,16.58
2023-03-15T09:53:34.050Z,16.69
2023-03-15T09:56:02.404Z,16.84
2023-03-15T09:58:35.547Z,16.84
2023-03-15T10:01:07.717Z,16.29
2023-03-15T10:03:40.533Z,15.92
2023-03-15T10:06:16.673Z,15.90
2023-03-15T10:08:44.756Z,15.31
2023-03-15T10:11:21.839Z,15.04
2023-03-15T10:14:03.345Z,15.22
2023-03-15T10:16:40.380Z,15.04
2023-03-15T10:19:19.883Z,15.12
2023-03-15T10:21:55.810Z,15.21
2023-03-15T10:24:31.524Z,15.46
2023-03-15T10:27:04.411Z,15.66
2023-03-15T10:29:33.977Z,15.90
2023-03-15T10:32:02.040Z,15.52
2023-03-15T10:34:30.810Z,15.22
2023-03-15T10:36:58.845Z,15.26
2023-03-15T10:39:26.911Z,15.23
2023-03-15T10:41:54.965Z,15.01
2023-03-15T10:44:25.764Z,15.18
2023-03-15T10:47:21.945Z,15.32
2023-03-15T10:49:51.434Z,15.45
2023-03-15T10:52:35.555Z,15.55
2023-03-15T10:55:07.976Z,15.94
2023-03-15T10:57:40.211Z,16.27
2023-03-15T11:00:24.017Z,16.49
2023-03-15T11:03:02.794Z,16.08
2023-03-15T11:05:32.584Z,15.68
2023-03-15T11:08:02.149Z,16.05
2023-03-15T11:10:35.529Z,16.23
2023-03-15T11:13:21.894Z,16.34
2023-03-15T11:15:57.160Z,16.59
2023-03-15T11:18:32.740Z,16.27
2023-03-15T11:21:02.979Z,16.31
2023-03-15T11:23:35.914Z,16.16
2023-03-15T11:26:04.517Z,15.97
2023-03-15T11:28:36.381Z,16.36
2023-03-15T11:31:05.210Z,16.57
2023-03-15T11:33:47.080Z,16.11
2023-03-15T11:36:19.685Z,16.25
2023-03-15T11:38:48.279Z,15.95
2023-03-15T11:41:25.303Z,16.02
2023-03-15T11:44:12.395Z,16.79
2023-03-15T11:46:43.949Z,16.99
2023-03-15T11:49:18.958Z,17.36
2023-03-15T11:51:47.120Z,17.36
2023-03-15T11:54:17.250Z,17.55
2023-03-15T11:56:52.587Z,17.25
2023-03-15T11:59:25.500Z,17.06
2023-03-15T12:01:57.955Z,16.98
2023-03-15T12:04:51.683Z,17.06
2023-03-15T12:07:59.374Z,16.93
2023-03-15T12:10:46.869Z,17.26
2023-03-15T12:13:23.371Z,17.23
2023-03-15T12:15:52.094Z,17.47
2023-03-15T12:18:28.556Z,17.04
2023-03-15T12:21:14.196Z,17.17
2023-03-15T12:23:46.506Z,17.15
2023-03-15T12:26:26.126Z,17.47
2023-03-15T12:29:06.992Z,17.83
2023-03-15T12:31:47.199Z,18.00
2023-03-15T12:34:16.509Z,17.90
2023-03-15T12:36:48.858Z,18.16
2023-03-15T12:39:39.624Z,18.08
2023-03-15T12:42:08.650Z,18.40
2023-03-15T12:44:41.781Z,18.75
2023-03-15T12:47:11.351Z,18.78
2023-03-15T12:49:42.958Z,18.68
2023-03-15T12:52:41.592Z,18.51
2023-03-15T12:55:17.257Z,17.38
2023-03-15T12:57:50.572Z,17.63
2023-03-15T13:00:22.261Z,17.60
2023-03-15T13:02:53.046Z,17.56
2023-03-15T13:05:25.219Z,17.61
2023-03-15T13:08:08.946Z,17.74
2023-03-15T13:10:54.964Z,18.11
2023-03-15T13:13:36.244Z,18.39
2023-03-15T13:16:18.073Z,18.35
2023-03-15T13:18:53.995Z,18.53
2023-03-15T13:21:28.059Z,18.67
2023-03-15T13:23:59.409Z,18.55
2023-03-15T13:26:40.610Z,19.02
2023-03-15T13:29:17.669Z,18.65
2023-03-15T13:31:46.812Z,18.41
2023-03-15T13:34:17.596Z,18.51
2023-03-15T13:36:48.221Z,18.76
2023-03-15T13:39:23.365Z,18.01
2023-03-15T13:41:58.239Z,17.91
2023-03-15T13:44:27.960Z,18.01
2023-03-15T13:46:56.388Z,17.78
2023-03-15T13:49:25.255Z,17.24
2023-03-15T13:51:54.569Z,17.81
2023-03-15T13:54:27.790Z,17.68
2023-03-15T13:57:06.120Z,17.71
2023-03-15T13:59:41.001Z,17.55
2023-03-15T14:02:14.128Z,17.86
2023-03-15T14:04:42.110Z,18.21
2023-03-15T14:07:26.506Z,18.39
2023-03-15T14:10:30.041Z,18.30
2023-03-15T14:12:59.742Z,17.98
2023-03-15T14:15:36.566Z,17.94
2023-03-15T14:18:17.225Z,18.07
2023-03-15T14:20:48.525Z,17.97
2023-03-15T14:23:18.616Z,17.96
2023-03-15T14:25:54.506Z,18.12
2023-03-15T14:28:24.574Z,18.18
2023-03-15T14:30:54.730Z,18.02
2023-03-15T14:33:31.476Z,18.25
2023-03-15T14:36:01.464Z,18.60
2023-03-15T14:38:34.991Z,18.51
2023-03-15T14:41:23.520Z,18.82
2023-03-15T14:43:51.859Z,19.23
2023-03-15T14:46:20.105Z,19.43
2023-03-15T14:48:48.344Z,19.57
2023-03-15T14:51:19.014Z,19.55
2023-03-15T14:53:48.491Z,19.57
2023-03-15T14:56:19.753Z,19.64
2023-03-15T14:58:49.555Z,19.57
2023-03-15T15:01:22.504Z,19.44
2023-03-15T15:03:54.382Z,19.63
2023-03-15T15:06:22.993Z,18.90
2023-03-15T15:08:54.235Z,18.99
2023-03-15T15:11:23.705Z,19.01
2023-03-15T15:13:51.925Z,19.24
2023-03-15T15:16:20.177Z,19.32
2023-03-15T15:19:08.240Z,18.97
2023-03-15T15:21:56.315Z,18.82
2023-03-15T15:24:44.817Z,18.09
2023-03-15T15:27:34.196Z,18.20
2023-03-15T15:30:25.040Z,18.03
2023-03-15T15:33:13.040Z,18.07
2023-03-15T15:36:01.090Z,18.43
2023-03-15T15:38:49.221Z,18.77
2023-03-15T15:41:37.244Z,18.89
2023-03-15T15:44:26.632Z,18.97
2023-03-15T15:47:14.667Z,18.61
2023-03-15T15:50:02.621Z,18.30
2023-03-15T15:52:52.859Z,18.03
2023-03-15T15:55:40.839Z,18.19
2023-03-15T15:58:28.983Z,18.27
2023-03-15T16:01:18.634Z,18.39
2023-03-15T16:04:06.679Z,17.92
2023-03-15T16:06:58.713Z,18.06
2023-03-15T16:09:49.111Z,17.35
2023-03-15T16:12:37.517Z,17.31
2023-03-15T16:15:25.839Z,17.87
2023-03-15T16:18:15.934Z,18.00
2023-03-15T16:21:03.940Z,17.55
2023-03-15T16:23:57.334Z,17.54
2023-03-15T16:26:48.267Z,17.55
2023-03-15T16:29:38.973Z,17.74
2023-03-15T16:32:42.842Z,17.67
2023-03-15T16:35:36.025Z,17.83
2023-03-15T16:38:30.119Z,17.73
2023-03-15T16:41:18.548Z,17.58
2023-03-15T16:44:12.410Z,17.54
2023-03-15T16:47:00.446Z,17.42
2023-03-15T16:49:48.475Z,17.32
2023-03-15T16:52:38.088Z,17.20
2023-03-15T16:55:30.787Z,17.16
2023-03-15T16:58:20.310Z,17.32
2023-03-15T17:01:11.017Z,17.36
2023-03-15T17:03:59.168Z,17.44
2023-03-15T17:06:47.493Z,17.29
2023-03-15T17:09:37.124Z,17.27
2023-03-15T17:12:05.852Z,16.77
2023-03-15T17:14:35.274Z,16.83
2023-03-15T17:17:03.373Z,16.82
2023-03-15T17:19:32.192Z,16.84
2023-03-15T17:22:00.392Z,16.87
2023-03-15T17:24:28.689Z,16.67
2023-03-15T17:26:58.613Z,16.78
2023-03-15T17:29:26.681Z,16.76
2023-03-15T17:31:55.025Z,16.57
2023-03-15T17:34:23.134Z,16.70
2023-03-15T17:36:51.434Z,16.62
2023-03-15T17:39:19.488Z,16.42
2023-03-15T17:41:49.197Z,16.24
2023-03-15T17:44:18.717Z,16.43
2023-03-15T17:46:46.802Z,16.48
2023-03-15T17:49:16.315Z,16.50
2023-03-15T17:51:47.083Z,16.43
2023-03-15T17:54:17.860Z,16.40
2023-03-15T17:56:45.884Z,16.31
2023-03-15T17:59:14.278Z,16.22
2023-03-15T18:01:46.463Z,16.16
2023-03-15T18:04:14.936Z,16.07
2023-03-15T18:06:43.765Z,15.91
2023-03-15T18:09:12.607Z,15.91
2023-03-15T18:11:42.654Z,15.86
2023-03-15T18:14:14.023Z,15.79
2023-03-15T18:16:45.459Z,15.74
2023-03-15T18:19:13.575Z,15.58
2023-03-15T18:21:41.809Z,15.52
2023-03-15T18:24:12.911Z,15.45
2023-03-15T18:26:41.093Z,15.21
2023-03-15T18:29:09.165Z,15.09
2023-03-15T18:31:37.218Z,15.04
2023-03-15T18:34:06.832Z,14.85
2023-03-15T18:36:34.833Z,14.93
2023-03-15T18:39:03.029Z,14.93
2023-03-15T18:41:31.143Z,14.90
2023-03-15T18:43:59.579Z,14.88
2023-03-15T18:46:27.619Z,14.80
2023-03-15T18:48:55.836Z,14.81
2023-03-15T18:51:28.272Z,14.81
2023-03-15T18:53:57.135Z,14.77
2023-03-15T18:56:26.966Z,14.78
2023-03-15T18:58:55.929Z,14.68
2023-03-15T19:01:24.793Z,14.63
2023-03-15T19:03:54.287Z,14.61
2023-03-15T19:06:23.383Z,14.57
2023-03-15T19:08:54.429Z,14.50
2023-03-15T19:11:24.075Z,14.43
2023-03-15T19:13:52.201Z,14.36
2023-03-15T19:16:20.739Z,14.32
2023-03-15T19:18:49.631Z,14.28
2023-03-15T19:21:18.958Z,14.20
2023-03-15T19:23:47.212Z,14.13
2023-03-15T19:26:16.667Z,14.15
2023-03-15T19:28:44.916Z,14.15
2023-03-15T19:31:13.003Z,14.16
2023-03-15T19:33:41.082Z,14.06
2023-03-15T19:36:10.172Z,13.97
2023-03-15T19:38:44.413Z,13.98
2023-03-15T19:41:16.616Z,13.91
2023-03-15T19:43:47.630Z,13.92
2023-03-15T19:46:17.499Z,13.94
2023-03-15T19:49:04.378Z,13.96
2023-03-15T19:51:32.708Z,13.93
2023-03-15T19:54:01.138Z,13.83
2023-03-15T19:56:33.747Z,13.71
2023-03-15T19:59:05.698Z,13.74
2023-03-15T20:01:33.703Z,13.74
2023-03-15T20:04:01.781Z,13.69
2023-03-15T20:06:30.152Z,13.62
2023-03-15T20:08:58.142Z,13.61
2023-03-15T20:11:26.229Z,13.50
2023-03-15T20:13:55.627Z,13.53
2023-03-15T20:16:23.766Z,13.56
2023-03-15T20:18:55.922Z,13.55
2023-03-15T20:21:33.754Z,13.51
2023-03-15T20:24:01.774Z,13.53
2023-03-15T20:26:31.236Z,13.42
2023-03-15T20:29:03.417Z,13.38
2023-03-15T20:31:34.630Z,13.35
2023-03-15T20:34:02.624Z,13.24
2023-03-15T20:36:33.311Z,13.23
2023-03-15T20:39:10.093Z,13.23
2023-03-15T20:41:55.978Z,13.14
2023-03-15T20:44:25.858Z,13.11
2023-03-15T20:46:56.787Z,13.06
2023-03-15T20:49:24.930Z,12.96
2023-03-15T20:51:52.884Z,12.89
2023-03-15T20:54:20.945Z,12.85
2023-03-15T20:56:48.902Z,12.85
2023-03-15T20:59:16.907Z,12.81
2023-03-15T21:01:47.267Z,12.77
2023-03-15T21:04:16.105Z,12.78
2023-03-15T21:06:44.058Z,12.72
2023-03-15T21:09:12.077Z,12.65
2023-03-15T21:11:40.123Z,12.62
2023-03-15T21:14:08.170Z,12.65
2023-03-15T21:16:36.315Z,12.74
2023-03-15T21:19:05.782Z,12.63
2023-03-15T21:21:33.788Z,12.63
2023-03-15T21:24:02.300Z,12.67
2023-03-15T21:26:30.537Z,12.66
2023-03-15T21:28:58.542Z,12.49
2023-03-15T21:31:26.555Z,12.52
2023-03-15T21:33:55.275Z,12.52
2023-03-15T21:36:25.237Z,12.48
2023-03-15T21:38:53.322Z,12.50
2023-03-15T21:41:24.075Z,12.59
2023-03-15T21:43:54.636Z,12.61
2023-03-15T21:46:22.717Z,12.55
2023-03-15T21:48:51.784Z,12.50
2023-03-15T21:51:24.097Z,12.43
2023-03-15T21:53:52.304Z,12.39
2023-03-15T21:56:20.298Z,12.29
2023-03-15T21:58:48.515Z,12.28
2023-03-15T22:01:16.737Z,12.22
2023-03-15T22:03:44.847Z,12.18
2023-03-15T22:06:16.051Z,12.16
2023-03-15T22:08:45.466Z,12.12
2023-03-15T22:11:13.542Z,12.04
2023-03-15T22:13:42.313Z,12.03
2023-03-15T22:16:11.150Z,11.98
2023-03-15T22:18:39.340Z,11.95
2023-03-15T22:21:07.631Z,11.81
2023-03-15T22:23:38.353Z,11.64
2023-03-15T22:26:08.025Z,11.53
2023-03-15T22:28:36.320Z,11.44
2023-03-15T22:31:04.440Z,11.46
2023-03-15T22:33:32.450Z,11.47
2023-03-15T22:36:03.317Z,11.40
2023-03-15T22:38:37.739Z,11.39
2023-03-15T22:41:08.997Z,11.40
2023-03-15T22:43:37.881Z,11.36
2023-03-15T22:46:07.591Z,11.28
2023-03-15T22:48:35.741Z,11.30
2023-03-15T22:51:05.499Z,11.24
2023-03-15T22:53:33.777Z,11.21
2023-03-15T22:56:02.225Z,11.19
2023-03-15T22:58:34.121Z,11.17
2023-03-15T23:01:02.531Z,11.17
2023-03-15T23:03:31.247Z,11.20
2023-03-15T23:06:02.187Z,11.15
2023-03-15T23:08:32.907Z,11.21
2023-03-15T23:11:00.954Z,11.16
2023-03-15T23:13:33.150Z,11.15
2023-03-15T23:16:03.985Z,11.10
2023-03-15T23:18:52.498Z,11.13
2023-03-15T23:21:20.556Z,11.14
2023-03-15T23:23:48.569Z,11.12
2023-03-15T23:26:16.905Z,11.14
2023-03-15T23:28:49.238Z,11.14
2023-03-15T23:31:17.244Z,11.01
2023-03-15T23:33:48.555Z,10.98
2023-03-15T23:36:17.022Z,10.96
2023-03-15T23:38:45.038Z,11.00
2023-03-15T23:41:13.303Z,10.95
2023-03-15T23:43:41.649Z,10.82
2023-03-15T23:46:14.560Z,10.73
2023-03-15T23:48:45.685Z,10.67
2023-03-15T23:51:13.716Z,10.61
2023-03-15T23:53:41.686Z,10.56
2023-03-15T23:56:09.674Z,10.46
2023-03-15T23:58:38.641Z,10.33
